Time;durP1;ratioP1;P1;durP2;ratioP2;P2;SDS_P1;SDS_P2;PMS_P1;PMS_P2;Temp;Humidity;BMP_temperature;BMP_pressure;BME280_temperature;BME280_humidity;BME280_pressure;Samples;Min_cycle;Max_cycle;Signal;HPM_P1;HPM_P2
2022/06/25 00:00:07;;;;;;;5.95;1.80;;;;;;;;;;5101530;27;20054;-68
2022/06/25 00:02:33;;;;;;;3.40;1.48;;;;;;;;;;5100590;27;20073;-68
2022/06/25 00:07:45;;;;;;;3.75;1.60;;;;;;;;;;5100434;27;20149;-68
2022/06/25 00:10:11;;;;;;;4.93;2.00;;;;;;;;;;5097552;27;20055;-68
2022/06/25 00:12:38;;;;;;;4.60;1.90;;;;;;;;;;5099381;27;20047;-68
2022/06/25 00:15:06;;;;;;;4.28;1.55;;;;;;;;;;5101672;27;20081;-68
2022/06/25 00:17:33;;;;;;;3.20;1.60;;;;;;;;;;5100218;27;20031;-69
2022/06/25 00:20:00;;;;;;;4.72;1.92;;;;;;;;;;5080869;27;20130;-68
2022/06/25 00:22:26;;;;;;;4.30;1.77;;;;;;;;;;5100044;28;20151;-68
2022/06/25 00:24:53;;;;;;;6.45;2.03;;;;;;;;;;5100724;28;20043;-68
2022/06/25 00:27:20;;;;;;;3.75;1.92;;;;;;;;;;5100612;28;20654;-68
2022/06/25 00:29:46;;;;;;;5.13;2.03;;;;;;;;;;5101432;28;21870;-68
2022/06/25 00:32:13;;;;;;;3.90;1.90;;;;;;;;;;5101306;28;20472;-68
2022/06/25 00:34:40;;;;;;;4.00;2.03;;;;;;;;;;5099223;28;20077;-68
2022/06/25 00:37:07;;;;;;;4.35;1.83;;;;;;;;;;5101139;28;20492;-68
2022/06/25 00:39:34;;;;;;;6.60;2.42;;;;;;;;;;5101270;28;20050;-67
2022/06/25 00:42:01;;;;;;;4.10;1.75;;;;;;;;;;5102639;28;20044;-66
2022/06/25 00:44:31;;;;;;;3.83;1.65;;;;;;;;;;5103091;28;20458;-67
2022/06/25 00:46:58;;;;;;;3.75;1.73;;;;;;;;;;5102111;28;20138;-68
2022/06/25 00:49:24;;;;;;;3.85;1.60;;;;;;;;;;5101191;28;20673;-66
2022/06/25 00:51:52;;;;;;;4.32;1.80;;;;;;;;;;5102118;28;20051;-68
2022/06/25 00:54:21;;;;;;;5.05;2.20;;;;;;;;;;5101187;28;20047;-68
2022/06/25 00:56:49;;;;;;;3.97;1.77;;;;;;;;;;5101408;28;20035;-68
2022/06/25 00:59:17;;;;;;;4.10;1.77;;;;;;;;;;5103013;28;20055;-69
2022/06/25 01:01:44;;;;;;;4.63;1.60;;;;;;;;;;5101890;28;20616;-67
2022/06/25 01:04:10;;;;;;;4.40;2.00;;;;;;;;;;5101659;27;20074;-67
2022/06/25 01:06:37;;;;;;;4.20;1.90;;;;;;;;;;5101615;28;20395;-67
2022/06/25 01:09:04;;;;;;;4.05;1.58;;;;;;;;;;5101615;28;20042;-67
2022/06/25 01:11:30;;;;;;;5.10;2.00;;;;;;;;;;5100656;28;20067;-67
2022/06/25 01:13:57;;;;;;;3.40;1.48;;;;;;;;;;5101106;27;20031;-67
2022/06/25 01:16:24;;;;;;;4.75;2.08;;;;;;;;;;5101152;28;20502;-64
2022/06/25 01:18:50;;;;;;;4.70;2.03;;;;;;;;;;5103041;28;20118;-68
2022/06/25 01:21:17;;;;;;;5.03;1.90;;;;;;;;;;5101259;28;20134;-67
2022/06/25 01:23:44;;;;;;;3.47;1.55;;;;;;;;;;5100883;27;20082;-67
2022/06/25 01:26:11;;;;;;;4.68;1.85;;;;;;;;;;5104737;28;20040;-68
2022/06/25 01:28:37;;;;;;;4.07;2.08;;;;;;;;;;5102238;28;20027;-69
2022/06/25 01:31:04;;;;;;;3.92;1.85;;;;;;;;;;5103375;27;20500;-68
2022/06/25 01:33:30;;;;;;;5.35;2.10;;;;;;;;;;5103721;27;20043;-68
2022/06/25 01:35:57;;;;;;;5.38;1.60;;;;;;;;;;5109300;27;20069;-69
2022/06/25 01:38:24;;;;;;;4.25;1.80;;;;;;;;;;5109855;27;20051;-69
2022/06/25 01:40:50;;;;;;;4.25;2.10;;;;;;;;;;5112704;27;20044;-68
2022/06/25 01:43:17;;;;;;;5.10;1.98;;;;;;;;;;5113811;27;20055;-68
2022/06/25 01:45:44;;;;;;;4.40;1.60;;;;;;;;;;5110047;27;20031;-69
2022/06/25 01:48:11;;;;;;;3.65;1.60;;;;;;;;;;5087312;27;20039;-69
2022/06/25 01:50:38;;;;;;;4.40;1.58;;;;;;;;;;5087904;27;20051;-68
2022/06/25 01:53:05;;;;;;;3.88;1.50;;;;;;;;;;5110701;27;20035;-69
2022/06/25 01:55:32;;;;;;;4.10;1.80;;;;;;;;;;5109698;27;20048;-69
2022/06/25 01:57:59;;;;;;;3.75;1.90;;;;;;;;;;5110551;27;20495;-67
2022/06/25 02:00:27;;;;;;;3.47;1.75;;;;;;;;;;5109490;27;20132;-68
2022/06/25 02:02:54;;;;;;;4.18;2.13;;;;;;;;;;5110652;27;20484;-67
2022/06/25 02:05:56;;;;;;;4.50;1.92;;;;;;;;;;5083356;27;20427;-67
2022/06/25 02:08:10;;;;;;;5.90;2.38;;;;;;;;;;5108648;27;20054;-68
2022/06/25 02:10:37;;;;;;;4.63;2.20;;;;;;;;;;5109467;27;20111;-68
2022/06/25 02:13:04;;;;;;;5.63;2.10;;;;;;;;;;5087540;27;20476;-69
2022/06/25 02:15:30;;;;;;;4.93;2.10;;;;;;;;;;5109089;27;20070;-68
2022/06/25 02:17:57;;;;;;;3.85;1.73;;;;;;;;;;5109506;27;20043;-69
2022/06/25 02:20:24;;;;;;;3.70;1.75;;;;;;;;;;5105993;27;20052;-68
2022/06/25 02:22:51;;;;;;;5.45;2.00;;;;;;;;;;5105071;27;20051;-67
2022/06/25 02:25:18;;;;;;;3.90;1.85;;;;;;;;;;5106024;27;20036;-68
2022/06/25 02:27:44;;;;;;;3.67;1.55;;;;;;;;;;5103856;27;20510;-68
2022/06/25 02:30:11;;;;;;;4.32;1.50;;;;;;;;;;5104746;27;20055;-68
2022/06/25 02:32:38;;;;;;;4.78;2.00;;;;;;;;;;5102584;27;20102;-70
2022/06/25 02:35:05;;;;;;;6.97;1.90;;;;;;;;;;5105394;27;20079;-68
2022/06/25 02:37:32;;;;;;;3.95;1.60;;;;;;;;;;5071422;27;20043;-68
2022/06/25 02:39:58;;;;;;;4.18;1.90;;;;;;;;;;5104245;27;20036;-68
2022/06/25 02:42:25;;;;;;;4.13;1.80;;;;;;;;;;5103166;27;20039;-68
2022/06/25 02:44:55;;;;;;;4.43;1.80;;;;;;;;;;5107000;27;20035;-68
2022/06/25 02:47:22;;;;;;;3.83;1.85;;;;;;;;;;5104133;27;20089;-67
2022/06/25 02:49:48;;;;;;;3.97;1.83;;;;;;;;;;5103674;27;20039;-67
2022/06/25 02:52:15;;;;;;;4.05;1.63;;;;;;;;;;5104661;27;20055;-68
2022/06/25 02:54:42;;;;;;;4.60;2.00;;;;;;;;;;5102691;27;20071;-68
2022/06/25 02:59:53;;;;;;;4.15;1.73;;;;;;;;;;5097401;27;20050;-68
2022/06/25 03:02:20;;;;;;;4.75;2.15;;;;;;;;;;5084892;28;20381;-68
2022/06/25 03:04:50;;;;;;;5.05;2.03;;;;;;;;;;5085760;28;20115;-68
2022/06/25 03:07:17;;;;;;;3.88;1.80;;;;;;;;;;5088041;28;20047;-68
2022/06/25 03:09:44;;;;;;;4.15;1.63;;;;;;;;;;5087256;27;20043;-68
2022/06/25 03:12:12;;;;;;;4.28;2.03;;;;;;;;;;5089772;27;20040;-68
2022/06/25 03:14:38;;;;;;;3.63;1.40;;;;;;;;;;5104175;27;20047;-68
2022/06/25 03:17:05;;;;;;;3.95;1.80;;;;;;;;;;5105390;27;20067;-68
2022/06/25 03:19:32;;;;;;;3.50;1.58;;;;;;;;;;5105052;27;20067;-68
2022/06/25 03:21:58;;;;;;;4.90;1.85;;;;;;;;;;5084735;27;20047;-68
2022/06/25 03:24:25;;;;;;;4.20;1.83;;;;;;;;;;5104105;27;21762;-68
2022/06/25 03:26:52;;;;;;;5.80;1.45;;;;;;;;;;5105109;27;20036;-67
2022/06/25 03:29:18;;;;;;;4.93;1.77;;;;;;;;;;5104319;27;20075;-67
2022/06/25 03:31:46;;;;;;;4.03;1.90;;;;;;;;;;5104416;27;20494;-67
2022/06/25 03:34:13;;;;;;;3.63;1.67;;;;;;;;;;5103746;27;20043;-68
2022/06/25 03:36:39;;;;;;;4.15;1.75;;;;;;;;;;5102258;27;20043;-69
2022/06/25 03:39:06;;;;;;;6.57;1.92;;;;;;;;;;5105038;27;20555;-69
2022/06/25 03:41:33;;;;;;;6.70;1.80;;;;;;;;;;5105246;27;20058;-68
2022/06/25 03:44:19;;;;;;;4.22;1.80;;;;;;;;;;5106573;27;20076;-68
2022/06/25 03:46:49;;;;;;;5.18;1.80;;;;;;;;;;5077668;28;20046;-68
2022/06/25 03:49:16;;;;;;;4.70;1.80;;;;;;;;;;5087154;28;20176;-67
2022/06/25 03:51:43;;;;;;;6.82;1.98;;;;;;;;;;5087277;28;20051;-68
2022/06/25 03:54:09;;;;;;;3.88;1.88;;;;;;;;;;5084603;28;20757;-68
2022/06/25 03:56:36;;;;;;;4.50;1.63;;;;;;;;;;5083574;28;20089;-68
2022/06/25 03:59:19;;;;;;;4.97;1.80;;;;;;;;;;5086900;28;20028;-67
2022/06/25 04:01:45;;;;;;;5.57;1.98;;;;;;;;;;5072415;28;20039;-69
2022/06/25 04:04:12;;;;;;;3.90;1.70;;;;;;;;;;5085364;28;20070;-68
2022/06/25 04:06:39;;;;;;;4.13;1.90;;;;;;;;;;5084234;28;20413;-68
2022/06/25 04:09:06;;;;;;;7.55;2.00;;;;;;;;;;5085459;28;20427;-68
2022/06/25 04:11:33;;;;;;;4.05;1.85;;;;;;;;;;5085991;28;20112;-65
2022/06/25 04:13:59;;;;;;;7.28;1.98;;;;;;;;;;5086011;28;20066;-68
2022/06/25 04:16:26;;;;;;;5.60;2.00;;;;;;;;;;5085188;28;20071;-65
2022/06/25 04:18:53;;;;;;;4.55;2.00;;;;;;;;;;5087465;28;20054;-66
2022/06/25 04:21:19;;;;;;;3.92;1.77;;;;;;;;;;5084260;28;20051;-68
2022/06/25 04:23:46;;;;;;;4.45;2.10;;;;;;;;;;5085899;28;20099;-67
2022/06/25 04:26:13;;;;;;;7.18;2.40;;;;;;;;;;5084472;28;20686;-68
2022/06/25 04:31:25;;;;;;;5.28;2.05;;;;;;;;;;5071815;28;20047;-67
2022/06/25 04:33:51;;;;;;;5.00;2.20;;;;;;;;;;5069614;28;20044;-67
2022/06/25 04:36:18;;;;;;;4.63;1.85;;;;;;;;;;5056121;28;20049;-65
2022/06/25 04:38:45;;;;;;;4.22;2.13;;;;;;;;;;5105204;28;20036;-66
2022/06/25 04:41:12;;;;;;;4.60;1.90;;;;;;;;;;5105592;28;20031;-67
2022/06/25 04:43:38;;;;;;;4.07;2.00;;;;;;;;;;5102089;28;20035;-67
2022/06/25 04:46:05;;;;;;;5.15;2.15;;;;;;;;;;5068906;28;20043;-67
2022/06/25 04:48:32;;;;;;;5.30;2.20;;;;;;;;;;5081962;28;20592;-67
2022/06/25 04:50:58;;;;;;;5.05;2.03;;;;;;;;;;5082701;28;20403;-68
2022/06/25 04:53:25;;;;;;;5.03;1.83;;;;;;;;;;5082304;28;20472;-68
2022/06/25 04:55:52;;;;;;;4.35;2.10;;;;;;;;;;5066648;28;20048;-68
2022/06/25 04:58:19;;;;;;;4.65;1.88;;;;;;;;;;5099732;27;20036;-68
2022/06/25 05:00:45;;;;;;;4.63;2.13;;;;;;;;;;5084380;28;21956;-68
2022/06/25 05:03:12;;;;;;;4.28;1.98;;;;;;;;;;5081278;28;20163;-67
2022/06/25 05:05:39;;;;;;;5.80;2.35;;;;;;;;;;5080568;28;20360;-67
2022/06/25 05:08:05;;;;;;;4.53;2.13;;;;;;;;;;5086694;28;20389;-68
2022/06/25 05:10:32;;;;;;;4.93;2.28;;;;;;;;;;5085402;28;20028;-67
2022/06/25 05:13:14;;;;;;;6.45;2.17;;;;;;;;;;5085715;28;20032;-67
2022/06/25 05:15:42;;;;;;;4.57;2.13;;;;;;;;;;5098350;27;20047;-67
2022/06/25 05:18:10;;;;;;;5.25;2.08;;;;;;;;;;5085954;28;20047;-67
2022/06/25 05:20:38;;;;;;;5.15;2.38;;;;;;;;;;5085277;28;20134;-67
2022/06/25 05:23:04;;;;;;;6.55;2.25;;;;;;;;;;5100806;27;20842;-67
2022/06/25 05:25:31;;;;;;;4.57;2.05;;;;;;;;;;5085282;28;20090;-67
2022/06/25 05:27:57;;;;;;;11.38;2.10;;;;;;;;;;5085997;28;20039;-67
2022/06/25 05:30:24;;;;;;;5.80;2.35;;;;;;;;;;5084382;28;20043;-67
2022/06/25 05:32:51;;;;;;;4.18;1.83;;;;;;;;;;5085026;28;20043;-67
2022/06/25 05:35:17;;;;;;;4.95;2.17;;;;;;;;;;5085131;28;20089;-68
2022/06/25 05:37:44;;;;;;;5.80;2.15;;;;;;;;;;5086420;28;20039;-68
2022/06/25 05:40:11;;;;;;;6.75;2.30;;;;;;;;;;5084884;28;20143;-68
2022/06/25 05:42:38;;;;;;;6.45;2.22;;;;;;;;;;5083342;28;20051;-68
2022/06/25 05:45:05;;;;;;;3.80;1.77;;;;;;;;;;5085849;28;20040;-69
2022/06/25 05:47:31;;;;;;;4.95;2.05;;;;;;;;;;5086357;28;20032;-68
2022/06/25 05:49:58;;;;;;;5.57;2.10;;;;;;;;;;5086204;28;20025;-67
2022/06/25 05:52:24;;;;;;;4.38;2.00;;;;;;;;;;5084657;28;20070;-67
2022/06/25 05:54:51;;;;;;;8.55;2.22;;;;;;;;;;5085778;28;20131;-67
2022/06/25 05:57:19;;;;;;;4.18;1.92;;;;;;;;;;5085743;28;20123;-68
2022/06/25 05:59:46;;;;;;;6.70;1.85;;;;;;;;;;5085418;28;20043;-67
2022/06/25 06:02:12;;;;;;;5.18;2.33;;;;;;;;;;5085101;28;20143;-67
2022/06/25 06:04:39;;;;;;;4.22;2.10;;;;;;;;;;5085134;28;20083;-68
2022/06/25 06:07:06;;;;;;;5.50;1.77;;;;;;;;;;5085831;28;20078;-68
2022/06/25 06:09:33;;;;;;;4.82;2.10;;;;;;;;;;5086095;28;20043;-67
2022/06/25 06:12:00;;;;;;;4.82;2.15;;;;;;;;;;5085625;28;20035;-67
2022/06/25 06:14:26;;;;;;;4.95;1.88;;;;;;;;;;5084883;28;20036;-68
2022/06/25 06:16:53;;;;;;;4.47;2.10;;;;;;;;;;5086156;28;20126;-68
2022/06/25 06:19:19;;;;;;;4.13;1.92;;;;;;;;;;5084998;28;20063;-68
2022/06/25 06:21:46;;;;;;;5.13;1.98;;;;;;;;;;5085529;28;20055;-68
2022/06/25 06:24:13;;;;;;;3.30;1.50;;;;;;;;;;5086065;28;20055;-67
2022/06/25 06:26:39;;;;;;;4.68;1.83;;;;;;;;;;5084894;28;20043;-68
2022/06/25 06:29:06;;;;;;;4.60;2.00;;;;;;;;;;5086096;28;20127;-68
2022/06/25 06:31:33;;;;;;;4.68;2.13;;;;;;;;;;5086467;28;20039;-67
2022/06/25 06:33:59;;;;;;;4.85;1.98;;;;;;;;;;5086334;28;20107;-67
2022/06/25 06:36:26;;;;;;;5.90;1.90;;;;;;;;;;5100958;27;20047;-67
2022/06/25 06:38:53;;;;;;;7.70;1.83;;;;;;;;;;5086319;28;20048;-67
2022/06/25 06:41:20;;;;;;;4.95;2.00;;;;;;;;;;5085848;28;20039;-68
2022/06/25 06:43:46;;;;;;;3.53;1.60;;;;;;;;;;5086057;28;20028;-68
2022/06/25 06:46:13;;;;;;;3.85;1.60;;;;;;;;;;5086777;28;20515;-67
2022/06/25 06:48:40;;;;;;;4.10;2.00;;;;;;;;;;5084887;28;20111;-68
2022/06/25 06:51:07;;;;;;;4.05;1.80;;;;;;;;;;5084437;28;20545;-67
2022/06/25 06:53:34;;;;;;;4.60;1.75;;;;;;;;;;5084238;28;20055;-64
2022/06/25 06:56:01;;;;;;;5.47;1.70;;;;;;;;;;5084923;28;20591;-67
2022/06/25 06:58:29;;;;;;;4.32;1.83;;;;;;;;;;5083723;28;20036;-65
2022/06/25 07:00:56;;;;;;;5.13;1.80;;;;;;;;;;5091275;27;20066;-67
2022/06/25 07:03:22;;;;;;;3.92;1.45;;;;;;;;;;5086830;27;20228;-68
2022/06/25 07:05:49;;;;;;;3.85;1.63;;;;;;;;;;5083755;28;20036;-68
2022/06/25 07:08:16;;;;;;;4.30;1.75;;;;;;;;;;5083331;28;20027;-68
2022/06/25 07:10:43;;;;;;;3.70;1.85;;;;;;;;;;5082839;28;20064;-67
2022/06/25 07:13:09;;;;;;;3.70;1.45;;;;;;;;;;5084482;28;20171;-68
2022/06/25 07:15:36;;;;;;;4.10;1.60;;;;;;;;;;5082362;28;20051;-68
2022/06/25 07:18:03;;;;;;;4.03;1.80;;;;;;;;;;5084067;28;20089;-68
2022/06/25 07:20:29;;;;;;;3.80;1.70;;;;;;;;;;5070307;28;20056;-68
2022/06/25 07:22:56;;;;;;;4.28;1.90;;;;;;;;;;5072274;28;20101;-67
2022/06/25 07:25:23;;;;;;;4.03;1.67;;;;;;;;;;5084750;28;20051;-68
2022/06/25 07:27:49;;;;;;;3.83;1.60;;;;;;;;;;5086594;28;20848;-68
2022/06/25 07:30:16;;;;;;;4.50;2.08;;;;;;;;;;5080466;28;20048;-68
2022/06/25 07:32:43;;;;;;;3.65;1.60;;;;;;;;;;5072638;28;20347;-68
2022/06/25 07:35:10;;;;;;;3.95;1.65;;;;;;;;;;5070180;28;20052;-68
2022/06/25 07:37:36;;;;;;;4.30;2.00;;;;;;;;;;5069599;28;20050;-69
2022/06/25 07:40:03;;;;;;;4.50;2.03;;;;;;;;;;5068339;28;20043;-68
2022/06/25 07:42:30;;;;;;;4.25;2.05;;;;;;;;;;5047293;28;20028;-69
2022/06/25 07:44:58;;;;;;;4.13;1.92;;;;;;;;;;5069870;28;20113;-69
2022/06/25 07:47:25;;;;;;;4.20;1.90;;;;;;;;;;5068971;28;20043;-69
2022/06/25 07:52:37;;;;;;;3.65;1.80;;;;;;;;;;5082366;28;20407;-69
2022/06/25 07:55:03;;;;;;;5.15;2.20;;;;;;;;;;5082945;28;20054;-69
2022/06/25 07:57:30;;;;;;;5.25;2.00;;;;;;;;;;5084092;28;20035;-68
2022/06/25 07:59:57;;;;;;;4.68;1.70;;;;;;;;;;5085653;28;20733;-67
2022/06/25 08:02:24;;;;;;;4.60;2.15;;;;;;;;;;5085217;28;20785;-68
2022/06/25 08:04:50;;;;;;;4.28;1.90;;;;;;;;;;5104349;27;20087;-68
2022/06/25 08:07:17;;;;;;;4.30;2.00;;;;;;;;;;5103207;27;21137;-68
2022/06/25 08:09:44;;;;;;;4.65;1.73;;;;;;;;;;5101835;27;20040;-68
2022/06/25 08:12:11;;;;;;;5.70;2.00;;;;;;;;;;5104375;28;20061;-67
2022/06/25 08:14:38;;;;;;;4.53;2.10;;;;;;;;;;5083320;27;20502;-68
2022/06/25 08:17:05;;;;;;;4.47;2.10;;;;;;;;;;5104639;27;20116;-68
2022/06/25 08:19:31;;;;;;;5.85;2.25;;;;;;;;;;5085501;28;20046;-68
2022/06/25 08:21:58;;;;;;;6.38;2.20;;;;;;;;;;5102979;27;20665;-68
2022/06/25 08:24:25;;;;;;;3.67;1.80;;;;;;;;;;5102940;27;20070;-68
2022/06/25 08:26:51;;;;;;;3.72;1.80;;;;;;;;;;5104895;27;20051;-68
2022/06/25 08:29:18;;;;;;;4.43;1.92;;;;;;;;;;5103686;28;20055;-68
2022/06/25 08:31:44;;;;;;;4.50;1.98;;;;;;;;;;5104986;28;20513;-69
2022/06/25 08:34:11;;;;;;;4.05;1.63;;;;;;;;;;5103680;28;20123;-68
2022/06/25 08:36:38;;;;;;;4.53;2.00;;;;;;;;;;5105594;28;20243;-68
2022/06/25 08:39:04;;;;;;;4.32;1.90;;;;;;;;;;5105809;28;20477;-68
2022/06/25 08:41:31;;;;;;;3.83;1.83;;;;;;;;;;5105218;27;20632;-68
2022/06/25 08:43:58;;;;;;;7.53;2.00;;;;;;;;;;5109360;27;20043;-68
2022/06/25 08:46:24;;;;;;;4.93;2.00;;;;;;;;;;5108466;27;20046;-69
2022/06/25 08:48:51;;;;;;;5.38;2.00;;;;;;;;;;5109155;27;20035;-68
2022/06/25 08:51:21;;;;;;;5.07;1.60;;;;;;;;;;5108986;27;20054;-68
2022/06/25 08:53:48;;;;;;;4.82;1.92;;;;;;;;;;5087410;27;20054;-68
2022/06/25 08:56:16;;;;;;;3.83;1.58;;;;;;;;;;5108555;27;20511;-68
2022/06/25 08:58:45;;;;;;;4.80;1.85;;;;;;;;;;5105649;27;20050;-68
2022/06/25 09:01:12;;;;;;;5.00;1.90;;;;;;;;;;5106774;27;20415;-68
2022/06/25 09:03:39;;;;;;;4.30;1.80;;;;;;;;;;5108031;27;20039;-68
2022/06/25 09:06:13;;;;;;;4.22;1.90;;;;;;;;;;5108650;27;20036;-68
2022/06/25 09:08:41;;;;;;;3.47;1.60;;;;;;;;;;5108303;27;20065;-69
2022/06/25 09:11:07;;;;;;;5.95;1.75;;;;;;;;;;5108962;27;20043;-69
2022/06/25 09:13:34;;;;;;;5.43;1.70;;;;;;;;;;5105178;27;20126;-69
2022/06/25 09:16:01;;;;;;;4.32;1.75;;;;;;;;;;5109034;27;20055;-69
2022/06/25 09:18:27;;;;;;;3.80;1.67;;;;;;;;;;5107212;27;22292;-69
2022/06/25 09:21:04;;;;;;;3.78;1.77;;;;;;;;;;5108930;27;20696;-69
2022/06/25 09:23:32;;;;;;;3.95;1.77;;;;;;;;;;5107339;27;20059;-69
2022/06/25 09:26:05;;;;;;;3.78;1.50;;;;;;;;;;5077410;28;20447;-69
2022/06/25 09:28:33;;;;;;;3.45;1.40;;;;;;;;;;5072270;28;20055;-69
2022/06/25 09:31:00;;;;;;;4.07;1.80;;;;;;;;;;5074174;28;20099;-69
2022/06/25 09:33:27;;;;;;;4.07;1.80;;;;;;;;;;5072045;28;20043;-68
2022/06/25 09:35:54;;;;;;;5.35;1.70;;;;;;;;;;5091991;27;20043;-62
2022/06/25 09:38:21;;;;;;;4.45;1.90;;;;;;;;;;5106670;27;20032;-63
2022/06/25 09:41:05;;;;;;;3.80;1.77;;;;;;;;;;5106095;27;20040;-62
2022/06/25 09:43:39;;;;;;;4.40;1.73;;;;;;;;;;5107719;27;21082;-62
2022/06/25 09:46:07;;;;;;;5.18;1.67;;;;;;;;;;5108736;27;20045;-62
2022/06/25 09:48:35;;;;;;;4.50;1.80;;;;;;;;;;5106898;27;20044;-62
2022/06/25 09:51:20;;;;;;;3.75;1.83;;;;;;;;;;5108335;27;20759;-63
2022/06/25 09:54:03;;;;;;;4.07;1.65;;;;;;;;;;5105732;27;20062;-63
2022/06/25 09:56:29;;;;;;;4.03;1.70;;;;;;;;;;5087952;27;20054;-63
2022/06/25 09:58:56;;;;;;;3.47;1.35;;;;;;;;;;5106496;27;20062;-63
2022/06/25 10:01:24;;;;;;;4.07;1.70;;;;;;;;;;5104810;27;20063;-63
2022/06/25 10:03:51;;;;;;;4.00;1.88;;;;;;;;;;5103591;27;20170;-65
2022/06/25 10:06:20;;;;;;;4.07;1.55;;;;;;;;;;5106743;27;22028;-64
2022/06/25 10:08:57;;;;;;;4.05;1.73;;;;;;;;;;5107008;27;20054;-59
2022/06/25 10:11:25;;;;;;;3.85;1.60;;;;;;;;;;5105851;27;20047;-63
2022/06/25 10:13:52;;;;;;;3.03;1.30;;;;;;;;;;5105992;27;20067;-62
2022/06/25 10:16:19;;;;;;;4.65;1.63;;;;;;;;;;5106076;27;20051;-63
2022/06/25 10:18:47;;;;;;;3.47;1.50;;;;;;;;;;5106884;27;20044;-62
2022/06/25 10:21:14;;;;;;;4.35;1.80;;;;;;;;;;5106179;27;20903;-63
2022/06/25 10:23:41;;;;;;;3.47;1.70;;;;;;;;;;5086238;27;20039;-62
2022/06/25 10:26:08;;;;;;;4.70;1.65;;;;;;;;;;5106495;27;20047;-63
2022/06/25 10:28:35;;;;;;;4.63;1.75;;;;;;;;;;5104732;27;20040;-62
2022/06/25 10:31:06;;;;;;;4.55;1.55;;;;;;;;;;5105710;27;20176;-62
2022/06/25 10:33:37;;;;;;;3.08;1.38;;;;;;;;;;5106752;27;20489;-63
2022/06/25 10:36:04;;;;;;;4.68;1.63;;;;;;;;;;5105379;27;20141;-62
2022/06/25 10:38:31;;;;;;;3.35;1.40;;;;;;;;;;5103546;27;20032;-61
2022/06/25 10:43:53;;;;;;;4.55;1.75;;;;;;;;;;5103318;27;20131;-63
2022/06/25 10:46:41;;;;;;;5.07;1.80;;;;;;;;;;5105724;27;20042;-62
2022/06/25 10:49:12;;;;;;;4.65;1.70;;;;;;;;;;5101633;27;20071;-63
2022/06/25 10:51:49;;;;;;;3.78;1.55;;;;;;;;;;5104831;27;20169;-62
2022/06/25 10:54:25;;;;;;;4.00;1.90;;;;;;;;;;5083327;27;20077;-63
2022/06/25 10:56:57;;;;;;;6.05;2.20;;;;;;;;;;5105068;27;20039;-62
2022/06/25 10:59:46;;;;;;;5.32;1.98;;;;;;;;;;5103961;27;20040;-62
2022/06/25 11:02:14;;;;;;;4.18;1.90;;;;;;;;;;5104486;27;20126;-63
2022/06/25 11:04:48;;;;;;;7.38;2.03;;;;;;;;;;5103070;27;20039;-63
2022/06/25 11:07:19;;;;;;;4.47;1.42;;;;;;;;;;5105297;27;21853;-62
2022/06/25 11:09:54;;;;;;;3.97;1.60;;;;;;;;;;5103373;27;20054;-63
2022/06/25 11:12:20;;;;;;;3.42;1.50;;;;;;;;;;5102621;27;20408;-62
2022/06/25 11:15:06;;;;;;;3.55;1.60;;;;;;;;;;5104229;27;20036;-63
2022/06/25 11:17:33;;;;;;;3.83;1.50;;;;;;;;;;5105264;27;20076;-60
2022/06/25 11:20:08;;;;;;;4.85;1.67;;;;;;;;;;5104109;27;20577;-63
2022/06/25 11:22:35;;;;;;;5.10;2.03;;;;;;;;;;5099447;27;20051;-63
2022/06/25 11:30:31;;;;;;;4.65;1.67;;;;;;;;;;5103466;27;20120;-63
2022/06/25 11:32:59;;;;;;;4.35;1.80;;;;;;;;;;5104268;27;20100;-63
2022/06/25 11:35:39;;;;;;;4.13;1.58;;;;;;;;;;5084367;27;20951;-62
2022/06/25 11:38:13;;;;;;;6.40;2.00;;;;;;;;;;5101910;27;20065;-62
2022/06/25 11:40:40;;;;;;;4.10;1.80;;;;;;;;;;5103913;27;20115;-61
2022/06/25 11:43:07;;;;;;;4.38;1.90;;;;;;;;;;5103182;27;20112;-62
2022/06/25 11:45:34;;;;;;;3.58;1.50;;;;;;;;;;5102466;27;20031;-63
2022/06/25 11:48:00;;;;;;;4.18;1.90;;;;;;;;;;5102645;27;20084;-62
2022/06/25 11:50:27;;;;;;;3.78;1.70;;;;;;;;;;5103079;27;20044;-62
2022/06/25 11:52:55;;;;;;;4.40;1.63;;;;;;;;;;5104596;27;20055;-63
2022/06/25 11:55:21;;;;;;;4.18;1.70;;;;;;;;;;5102337;27;20054;-62
2022/06/25 11:57:48;;;;;;;3.58;1.77;;;;;;;;;;5102671;27;20058;-63
2022/06/25 12:00:15;;;;;;;5.32;1.70;;;;;;;;;;5103590;27;20103;-63
2022/06/25 12:02:43;;;;;;;4.93;1.92;;;;;;;;;;5104423;27;20043;-63
2022/06/25 12:05:10;;;;;;;4.43;1.88;;;;;;;;;;5100685;27;20050;-63
2022/06/25 12:07:37;;;;;;;3.92;1.83;;;;;;;;;;5102110;27;20051;-63
2022/06/25 12:10:08;;;;;;;4.13;1.73;;;;;;;;;;5102997;27;20490;-63
2022/06/25 12:12:36;;;;;;;3.53;1.65;;;;;;;;;;5102356;27;20518;-63
2022/06/25 12:15:03;;;;;;;4.50;1.80;;;;;;;;;;5103720;27;20044;-63
2022/06/25 12:17:34;;;;;;;6.40;1.80;;;;;;;;;;5103118;27;20024;-63
2022/06/25 12:20:06;;;;;;;4.95;1.80;;;;;;;;;;5103866;27;20508;-62
2022/06/25 12:22:32;;;;;;;6.45;2.05;;;;;;;;;;5103094;27;20802;-62
2022/06/25 12:25:03;;;;;;;4.55;1.77;;;;;;;;;;5103991;27;20035;-63
2022/06/25 12:27:30;;;;;;;4.57;1.95;;;;;;;;;;5101720;27;20035;-62
2022/06/25 12:29:58;;;;;;;4.47;1.90;;;;;;;;;;5104031;28;20047;-62
2022/06/25 12:32:38;;;;;;;3.65;1.63;;;;;;;;;;5103589;27;20095;-63
2022/06/25 12:35:12;;;;;;;5.25;1.95;;;;;;;;;;5102156;28;20070;-63
2022/06/25 12:37:39;;;;;;;5.43;2.30;;;;;;;;;;5101658;28;20039;-62
2022/06/25 12:40:06;;;;;;;4.38;1.90;;;;;;;;;;5102313;28;20042;-63
2022/06/25 12:42:33;;;;;;;4.00;1.95;;;;;;;;;;5098384;28;20039;-62
2022/06/25 12:45:00;;;;;;;5.38;2.00;;;;;;;;;;5103434;28;20043;-61
2022/06/25 12:47:40;;;;;;;4.13;1.92;;;;;;;;;;5101431;28;20035;-62
2022/06/25 12:50:06;;;;;;;4.55;1.83;;;;;;;;;;5098582;28;20040;-62
2022/06/25 12:52:37;;;;;;;6.03;2.35;;;;;;;;;;5102497;27;20128;-62
2022/06/25 12:55:04;;;;;;;4.15;1.80;;;;;;;;;;5102996;28;20131;-62
2022/06/25 12:57:31;;;;;;;5.50;2.15;;;;;;;;;;5104151;28;20031;-62
2022/06/25 12:59:59;;;;;;;4.05;1.80;;;;;;;;;;5103160;28;20059;-61
2022/06/25 13:02:26;;;;;;;3.42;1.58;;;;;;;;;;5102865;28;20622;-61
2022/06/25 13:04:53;;;;;;;5.75;1.98;;;;;;;;;;5103941;28;20105;-61
2022/06/25 13:07:20;;;;;;;4.03;2.03;;;;;;;;;;5104502;28;20059;-61
2022/06/25 13:09:48;;;;;;;4.60;2.00;;;;;;;;;;5103124;28;20043;-62
2022/06/25 13:12:15;;;;;;;5.45;2.20;;;;;;;;;;5103591;28;20043;-62
2022/06/25 13:14:42;;;;;;;7.68;2.05;;;;;;;;;;5102162;28;21656;-61
2022/06/25 13:17:09;;;;;;;4.55;1.92;;;;;;;;;;5102676;28;20062;-62
2022/06/25 13:19:37;;;;;;;4.25;1.83;;;;;;;;;;5104146;28;20097;-61
2022/06/25 13:22:04;;;;;;;4.80;1.88;;;;;;;;;;5100553;27;20412;-62
2022/06/25 13:24:31;;;;;;;4.28;1.95;;;;;;;;;;5103066;28;20043;-62
2022/06/25 13:26:58;;;;;;;6.43;2.00;;;;;;;;;;5104336;27;20051;-61
2022/06/25 13:29:25;;;;;;;4.05;1.80;;;;;;;;;;5107138;27;20091;-61
2022/06/25 13:31:52;;;;;;;5.30;2.15;;;;;;;;;;5108654;27;20051;-61
2022/06/25 13:34:18;;;;;;;3.97;1.80;;;;;;;;;;5108113;27;20032;-61
2022/06/25 13:36:45;;;;;;;4.40;2.03;;;;;;;;;;5108623;27;20085;-61
2022/06/25 13:39:12;;;;;;;4.13;1.73;;;;;;;;;;5106353;27;20077;-61
2022/06/25 13:41:40;;;;;;;3.75;1.85;;;;;;;;;;5107144;27;20043;-60
2022/06/25 13:44:07;;;;;;;3.85;1.77;;;;;;;;;;5107575;27;20036;-60
2022/06/25 13:46:34;;;;;;;4.25;1.85;;;;;;;;;;5106552;27;20041;-61
2022/06/25 13:49:00;;;;;;;4.05;1.75;;;;;;;;;;5106991;27;20077;-61
2022/06/25 13:51:27;;;;;;;4.22;1.90;;;;;;;;;;5107768;27;20656;-62
2022/06/25 13:53:54;;;;;;;4.50;1.95;;;;;;;;;;5107161;27;20104;-61
2022/06/25 13:56:21;;;;;;;3.95;1.88;;;;;;;;;;5105265;27;20135;-61
2022/06/25 13:58:48;;;;;;;5.22;2.05;;;;;;;;;;5105984;27;20035;-62
2022/06/25 14:01:15;;;;;;;3.97;1.63;;;;;;;;;;5108479;27;20065;-62
2022/06/25 14:03:41;;;;;;;4.22;1.80;;;;;;;;;;5105754;27;20039;-62
2022/06/25 14:06:08;;;;;;;6.07;1.85;;;;;;;;;;5106270;27;20047;-62
2022/06/25 14:08:35;;;;;;;4.45;1.70;;;;;;;;;;5107187;27;20027;-62
2022/06/25 14:11:02;;;;;;;3.88;1.65;;;;;;;;;;5106622;27;20050;-62
2022/06/25 14:13:29;;;;;;;4.72;1.80;;;;;;;;;;5084494;27;20039;-62
2022/06/25 14:15:56;;;;;;;4.30;1.90;;;;;;;;;;5107274;27;20073;-62
2022/06/25 14:18:22;;;;;;;5.65;1.77;;;;;;;;;;5071159;28;20101;-62
2022/06/25 14:20:49;;;;;;;4.32;1.65;;;;;;;;;;5071492;28;20036;-62
2022/06/25 14:23:16;;;;;;;4.10;1.75;;;;;;;;;;5071781;28;20143;-62
2022/06/25 14:25:42;;;;;;;4.25;1.65;;;;;;;;;;5071813;28;20044;-62
2022/06/25 14:28:09;;;;;;;5.63;2.00;;;;;;;;;;5071715;28;20036;-62
2022/06/25 14:30:36;;;;;;;3.75;1.80;;;;;;;;;;5069453;28;20492;-62
2022/06/25 14:33:05;;;;;;;3.67;1.73;;;;;;;;;;5070719;28;20124;-62
2022/06/25 14:35:31;;;;;;;4.30;1.90;;;;;;;;;;5068924;28;20052;-62
2022/06/25 14:43:28;;;;;;;4.53;1.70;;;;;;;;;;5085912;28;20039;-62
2022/06/25 14:45:55;;;;;;;6.28;2.03;;;;;;;;;;5086446;28;21166;-62
2022/06/25 14:48:22;;;;;;;4.13;1.63;;;;;;;;;;5085147;28;20046;-61
2022/06/25 14:50:49;;;;;;;4.25;1.88;;;;;;;;;;5086613;28;20044;-63
2022/06/25 14:53:15;;;;;;;4.40;1.77;;;;;;;;;;5087295;28;20032;-63
2022/06/25 14:55:42;;;;;;;4.97;2.00;;;;;;;;;;5085966;28;20047;-63
2022/06/25 14:58:09;;;;;;;4.30;1.83;;;;;;;;;;5085867;28;20075;-66
2022/06/25 15:00:35;;;;;;;4.53;1.90;;;;;;;;;;5087173;28;20051;-64
2022/06/25 15:03:02;;;;;;;4.25;1.95;;;;;;;;;;5076890;28;20064;-64
2022/06/25 15:05:29;;;;;;;4.13;1.80;;;;;;;;;;5087077;27;20032;-64
2022/06/25 15:07:56;;;;;;;4.22;1.80;;;;;;;;;;5107212;27;20043;-64
2022/06/25 15:10:24;;;;;;;4.47;1.73;;;;;;;;;;5105249;27;20034;-64